DEAFM EDLW-EDLW

Flight info

Callsign DEAFM
Flight time 0h 7m
Altitude
Route
Aircraft C172

Departure

Time 2026-04-27 20:46
Airport Dortmund Airport (EDLW)

Arrival

Time 2026-04-27 20:53
Airport Dortmund Airport (EDLW)
Time Latitude Longitude Altitude Speed Heading
2026-04-27 20:33 51.51197 7.60399 458 ft 0 kts 196°
2026-04-27 20:40 51.51221 7.60426 455 ft 14 kts 13°
2026-04-27 20:40 51.51258 7.60478 451 ft 0 kts 57°
2026-04-27 20:40 51.51247 7.60482 454 ft 6 kts 248°
2026-04-27 20:41 51.51220 7.60391 453 ft 10 kts 249°
2026-04-27 20:41 51.51190 7.60310 454 ft 7 kts 243°
2026-04-27 20:41 51.51173 7.60245 454 ft 6 kts 251°
2026-04-27 20:41 51.51167 7.60186 453 ft 5 kts 275°
2026-04-27 20:42 51.51215 7.60230 440 ft 17 kts 54°
2026-04-27 20:42 51.51295 7.60445 436 ft 27 kts 59°
2026-04-27 20:42 51.51398 7.60737 424 ft 33 kts 60°
2026-04-27 20:42 51.51484 7.60979 424 ft 11 kts 59°
2026-04-27 20:43 51.51520 7.61053 428 ft 9 kts 15°
2026-04-27 20:43 51.51555 7.60967 424 ft 12 kts 260°
2026-04-27 20:43 51.51543 7.60830 420 ft 13 kts 263°
2026-04-27 20:43 51.51527 7.60706 417 ft 12 kts 263°
2026-04-27 20:44 51.51536 7.60647 416 ft 4 kts 304°
2026-04-27 20:44 51.51556 7.60624 415 ft 4 kts 331°
2026-04-27 20:44 51.51579 7.60609 415 ft 5 kts 355°
2026-04-27 20:44 51.51632 7.60654 417 ft 12 kts 59°
2026-04-27 20:45 51.51727 7.60926 417 ft 51 kts 60°
2026-04-27 20:45 51.51953 7.61540 485 ft 70 kts 56°
2026-04-27 20:45 51.52240 7.62177 630 ft 71 kts 50°
2026-04-27 20:45 51.52639 7.62573 799 ft 76 kts
2026-04-27 20:46 51.53135 7.62273 957 ft 77 kts 328°
2026-04-27 20:46 51.53526 7.61656 1078 ft 80 kts 311°
2026-04-27 20:46 51.53466 7.60763 1160 ft 90 kts 238°
2026-04-27 20:46 51.53108 7.59960 1285 ft 89 kts 230°
2026-04-27 20:47 51.52655 7.59313 1426 ft 86 kts 214°
2026-04-27 20:47 51.52142 7.58883 1532 ft 85 kts 187°
2026-04-27 20:47 51.51558 7.58850 1619 ft 85 kts 162°
2026-04-27 20:47 51.50970 7.59021 1539 ft 83 kts 176°
2026-04-27 20:48 51.50863 7.59230 1073 ft 74 kts 16°
2026-04-27 20:48 51.51154 7.59519 813 ft 74 kts 49°
2026-04-27 20:48 51.51505 7.60325 541 ft 61 kts 57°
2026-04-27 20:48 51.51714 7.60880 420 ft 54 kts 61°
2026-04-27 20:49 51.51881 7.61361 418 ft 58 kts 59°
2026-04-27 20:49 51.52106 7.61961 514 ft 75 kts 62°
2026-04-27 20:49 51.52366 7.62777 718 ft 87 kts 62°
2026-04-27 20:49 51.52658 7.63633 989 ft 92 kts 61°
2026-04-27 20:50 51.52976 7.64531 1234 ft 94 kts 57°
2026-04-27 20:50 51.53367 7.65322 1443 ft 97 kts 40°
2026-04-27 20:50 51.53979 7.64769 849 ft 135 kts 287°
2026-04-27 20:50 51.54021 7.63416 1227 ft 115 kts 266°
2026-04-27 20:51 51.53785 7.62183 1405 ft 116 kts 241°
2026-04-27 20:51 51.53371 7.61098 1616 ft 118 kts 237°
2026-04-27 20:51 51.52900 7.59964 1695 ft 129 kts 234°
2026-04-27 20:51 51.52437 7.58652 1303 ft 130 kts 244°
2026-04-27 20:52 51.51933 7.57663 1120 ft 105 kts 190°
2026-04-27 20:52 51.51373 7.58142 1029 ft 88 kts 119°
2026-04-27 20:52 51.51258 7.58717 896 ft 77 kts 99°
2026-04-27 20:52 51.51294 7.59513 743 ft 70 kts 76°
2026-04-27 20:53 51.51556 7.60419 511 ft 66 kts 60°
2026-04-27 20:53 51.51753 7.60997 414 ft 50 kts 61°
2026-04-27 20:53 51.51848 7.61267 414 ft 35 kts 59°
2026-04-27 20:53 51.51946 7.61549 409 ft 24 kts 63°
2026-04-27 20:54 51.52139 7.62093 406 ft 29 kts 60°
2026-04-27 20:54 51.52179 7.62310 405 ft 14 kts 137°
2026-04-27 20:54 51.52131 7.62363 405 ft 3 kts 146°
2026-04-27 20:55 51.52111 7.62381 405 ft 4 kts 154°
2026-04-27 20:55 51.52076 7.62394 404 ft 9 kts 193°
2026-04-27 20:55 51.52017 7.62292 406 ft 16 kts 240°
2026-04-27 20:55 51.51946 7.62081 408 ft 26 kts 238°
2026-04-27 20:56 51.51843 7.61795 412 ft 34 kts 238°
2026-04-27 20:56 51.51722 7.61450 419 ft 34 kts 239°
2026-04-27 20:56 51.51609 7.61158 424 ft 27 kts 224°
2026-04-27 20:56 51.51433 7.60876 427 ft 29 kts 244°
2026-04-27 20:57 51.51365 7.60615 431 ft 22 kts 233°
2026-04-27 20:57 51.51285 7.60403 439 ft 21 kts 247°